Castlebar Airport

Jump to: basic info | weather | comments

Related pages: nearby airports | nearby navaids | notams | map

Basic information (top)

Codes: CLB EICB
Location: lon 53.848400, lat -9.280370
Status: small_airport

Weather (top)

Current conditions for Ireland West Knock Airport 17nm (31km) ENE (rec'd 2015/04/20 18:00Z):

EIKN 201800Z 23003KT 9999 FEW042 14/04 Q1032 NOSIG

Airport forecast for Ireland West Knock Airport 17nm (31km) ENE (rec'd 2015/04/20 00:25Z):

TAF EIKN 202300Z 2100/2124 04004KT 9999 FEW020 
      TEMPO 2100/2108 VRB03KT PROB30 
      TEMPO 2103/2108 0500 FG BKN001 
      BECMG 2109/2112 09008KT 
      BECMG 2119/2121 04005KT

Latest comments (top)

No longer exists.: This airport was closed in 2001 and the ... [read]

fv: fg [read]

More... (top)

See also NOTAMs and nearby airports and navaids, or visit the Castlebar Airport page at the main OurAirports website..